Time;durP1;ratioP1;P1;durP2;ratioP2;P2;SDS_P1;SDS_P2;PMS_P1;PMS_P2;Temp;Humidity;BMP_temperature;BMP_pressure;BME280_temperature;BME280_humidity;BME280_pressure;Samples;Min_cycle;Max_cycle;Signal;HPM_P1;HPM_P2
2023/06/10 00:01:24;;;;;;;;;;;16.70;99.90;;;;;;5069541;28;19916;-85
2023/06/10 00:03:51;;;;;;;;;;;16.60;99.90;;;;;;5072763;28;20383;-85
2023/06/10 00:06:17;;;;;;;;;;;16.50;99.90;;;;;;5070641;28;19912;-84
2023/06/10 00:08:43;;;;;;;;;;;16.50;99.90;;;;;;5058813;28;19913;-85
2023/06/10 00:11:08;;;;;;;;;;;16.50;99.90;;;;;;5070723;28;19940;-85
2023/06/10 00:13:34;;;;;;;;;;;16.50;99.90;;;;;;5054992;28;19916;-85
2023/06/10 00:16:00;;;;;;;;;;;16.50;99.90;;;;;;5070409;28;20377;-86
2023/06/10 00:18:26;;;;;;;;;;;16.50;99.90;;;;;;5072564;28;19915;-85
2023/06/10 00:20:54;;;;;;;;;;;16.40;99.90;;;;;;5069866;28;19908;-85
2023/06/10 00:23:21;;;;;;;;;;;16.40;99.90;;;;;;5072686;28;20042;-85
2023/06/10 00:25:47;;;;;;;;;;;16.40;99.90;;;;;;5074310;28;20005;-85
2023/06/10 00:28:13;;;;;;;;;;;16.40;99.90;;;;;;5073832;28;20394;-85
2023/06/10 00:30:38;;;;;;;;;;;16.40;99.90;;;;;;5062452;28;19912;-85
2023/06/10 00:33:04;;;;;;;;;;;16.40;99.90;;;;;;5053311;28;19935;-85
2023/06/10 00:35:34;;;;;;;;;;;16.50;99.90;;;;;;5056012;28;19915;-85
2023/06/10 00:37:59;;;;;;;;;;;16.50;99.90;;;;;;5067618;28;19916;-84
2023/06/10 00:40:25;;;;;;;;;;;16.50;99.90;;;;;;5073663;28;19914;-85
2023/06/10 00:42:51;;;;;;;;;;;16.40;99.90;;;;;;5069568;28;19927;-85
2023/06/10 00:45:16;;;;;;;;;;;16.40;99.90;;;;;;5072760;28;19912;-85
2023/06/10 00:47:42;;;;;;;;;;;16.30;99.90;;;;;;5078079;28;20383;-85
2023/06/10 00:50:07;;;;;;;;;;;16.30;99.90;;;;;;5055058;28;19912;-85
2023/06/10 00:52:34;;;;;;;;;;;16.20;99.90;;;;;;5067790;28;19916;-85
2023/06/10 00:55:01;;;;;;;;;;;16.10;99.90;;;;;;5064912;28;19961;-85
2023/06/10 00:57:27;;;;;;;;;;;16.10;99.90;;;;;;5067499;28;20298;-84
2023/06/10 00:59:52;;;;;;;;;;;16.00;99.90;;;;;;5071909;28;19909;-84
2023/06/10 01:02:18;;;;;;;;;;;16.00;99.90;;;;;;5057096;28;19912;-85
2023/06/10 01:04:44;;;;;;;;;;;15.90;99.90;;;;;;5077093;28;20375;-85
2023/06/10 01:07:15;;;;;;;;;;;15.80;99.90;;;;;;5072853;28;20368;-84
2023/06/10 01:09:44;;;;;;;;;;;15.80;99.90;;;;;;5065474;28;19916;-85
2023/06/10 01:12:14;;;;;;;;;;;15.70;99.90;;;;;;5072162;28;19943;-85
2023/06/10 01:14:44;;;;;;;;;;;15.70;99.90;;;;;;5066353;28;19983;-84
2023/06/10 01:17:10;;;;;;;;;;;15.70;99.90;;;;;;5069898;28;19915;-85
2023/06/10 01:19:36;;;;;;;;;;;15.70;99.90;;;;;;5073491;28;20343;-85
2023/06/10 01:22:02;;;;;;;;;;;15.60;99.90;;;;;;5080377;28;19944;-84
2023/06/10 01:24:28;;;;;;;;;;;15.60;99.90;;;;;;5058543;28;19990;-84
2023/06/10 01:26:55;;;;;;;;;;;15.50;99.90;;;;;;5056401;28;19909;-84
2023/06/10 01:29:25;;;;;;;;;;;15.60;99.90;;;;;;5056678;28;19912;-84
2023/06/10 01:32:17;;;;;;;;;;;15.60;99.90;;;;;;5071194;28;19915;-84
2023/06/10 01:34:43;;;;;;;;;;;15.50;99.90;;;;;;5065195;28;19908;-84
2023/06/10 01:37:11;;;;;;;;;;;15.60;99.90;;;;;;5056781;28;20003;-84
2023/06/10 01:39:39;;;;;;;;;;;15.60;99.90;;;;;;5053885;28;20271;-84
2023/06/10 01:42:06;;;;;;;;;;;15.70;99.90;;;;;;5083804;28;19908;-84
2023/06/10 01:44:31;;;;;;;;;;;15.60;99.90;;;;;;5065386;28;19932;-85
2023/06/10 01:46:57;;;;;;;;;;;15.60;99.90;;;;;;5072469;28;20260;-84
2023/06/10 01:49:24;;;;;;;;;;;15.60;99.90;;;;;;5056529;28;20023;-84
2023/06/10 01:51:49;;;;;;;;;;;15.60;99.90;;;;;;5072985;28;19908;-85
2023/06/10 01:54:15;;;;;;;;;;;15.70;99.90;;;;;;5056651;28;20382;-84
2023/06/10 01:56:40;;;;;;;;;;;15.70;99.90;;;;;;5073241;28;19912;-85
2023/06/10 01:59:06;;;;;;;;;;;15.70;99.90;;;;;;5073683;28;19963;-84
2023/06/10 02:01:32;;;;;;;;;;;15.70;99.90;;;;;;5072855;28;19934;-85
2023/06/10 02:03:57;;;;;;;;;;;15.70;99.90;;;;;;5073037;28;19914;-84
2023/06/10 02:06:23;;;;;;;;;;;15.70;99.90;;;;;;5076555;28;19974;-84
2023/06/10 02:08:49;;;;;;;;;;;15.70;99.90;;;;;;5060394;28;20264;-84
2023/06/10 02:11:14;;;;;;;;;;;15.70;99.90;;;;;;5060682;28;19915;-85
2023/06/10 02:13:40;;;;;;;;;;;15.70;99.90;;;;;;5060517;28;19908;-84
2023/06/10 02:16:05;;;;;;;;;;;15.70;99.90;;;;;;5093880;28;19904;-85
2023/06/10 02:18:31;;;;;;;;;;;15.80;99.90;;;;;;5076357;28;19975;-84
2023/06/10 02:20:57;;;;;;;;;;;15.80;99.90;;;;;;5076043;28;19912;-85
2023/06/10 02:23:22;;;;;;;;;;;15.80;99.90;;;;;;5059830;28;20267;-85
2023/06/10 02:25:48;;;;;;;;;;;15.80;99.90;;;;;;5076763;28;20029;-84
2023/06/10 02:28:14;;;;;;;;;;;15.90;99.90;;;;;;5059863;28;19908;-85
2023/06/10 02:30:40;;;;;;;;;;;15.90;99.90;;;;;;5076635;28;19970;-85
2023/06/10 02:33:09;;;;;;;;;;;15.90;99.90;;;;;;5076340;28;19924;-85
2023/06/10 02:35:36;;;;;;;;;;;15.90;99.90;;;;;;5076621;28;20464;-85
2023/06/10 02:38:02;;;;;;;;;;;15.90;99.90;;;;;;5076772;28;19909;-85
2023/06/10 02:40:28;;;;;;;;;;;15.80;99.90;;;;;;5076660;28;19904;-85
2023/06/10 02:42:55;;;;;;;;;;;15.80;99.90;;;;;;5059846;28;19916;-85
2023/06/10 02:45:20;;;;;;;;;;;15.80;99.90;;;;;;5060031;28;20305;-85
2023/06/10 02:47:46;;;;;;;;;;;15.80;99.90;;;;;;5059687;28;19922;-85
2023/06/10 02:50:21;;;;;;;;;;;15.80;99.90;;;;;;5076527;28;19987;-85
2023/06/10 02:53:08;;;;;;;;;;;15.80;99.90;;;;;;5074689;28;20423;-85
2023/06/10 02:55:37;;;;;;;;;;;15.80;99.90;;;;;;5076351;28;19920;-85
2023/06/10 02:58:08;;;;;;;;;;;15.80;99.90;;;;;;5093178;28;19915;-85
2023/06/10 03:00:34;;;;;;;;;;;15.80;99.90;;;;;;5059216;28;19909;-85
2023/06/10 03:03:02;;;;;;;;;;;15.70;99.90;;;;;;5075819;28;19923;-85
2023/06/10 03:05:32;;;;;;;;;;;15.80;99.90;;;;;;5075397;28;19977;-85
2023/06/10 03:08:00;;;;;;;;;;;15.70;99.90;;;;;;5076008;28;19974;-85
2023/06/10 03:10:27;;;;;;;;;;;15.70;99.90;;;;;;5076154;28;19970;-85
2023/06/10 03:12:53;;;;;;;;;;;15.70;99.90;;;;;;5075923;28;19908;-85
2023/06/10 03:15:40;;;;;;;;;;;15.70;99.90;;;;;;5075980;28;20310;-85
2023/06/10 03:18:44;;;;;;;;;;;15.70;99.90;;;;;;5075894;28;19999;-86
2023/06/10 03:21:10;;;;;;;;;;;15.70;99.90;;;;;;5078215;28;20416;-87
2023/06/10 03:23:37;;;;;;;;;;;15.60;99.90;;;;;;5079479;28;20031;-87
2023/06/10 03:26:04;;;;;;;;;;;15.60;99.90;;;;;;5076767;28;19915;-88
2023/06/10 03:28:31;;;;;;;;;;;15.60;99.90;;;;;;5060057;28;19940;-88
2023/06/10 03:30:57;;;;;;;;;;;15.70;99.90;;;;;;5076390;28;19920;-88
2023/06/10 03:33:38;;;;;;;;;;;15.80;99.90;;;;;;5059666;28;19915;-88
2023/06/10 03:36:04;;;;;;;;;;;15.80;99.90;;;;;;5076282;28;20310;-87
2023/06/10 03:38:30;;;;;;;;;;;15.90;99.90;;;;;;5076254;28;19930;-88
2023/06/10 03:40:56;;;;;;;;;;;15.90;99.90;;;;;;5060041;28;19909;-87
2023/06/10 03:43:22;;;;;;;;;;;15.90;99.90;;;;;;5077009;28;19915;-87
2023/06/10 03:45:49;;;;;;;;;;;15.90;99.90;;;;;;5059163;28;20275;-87
2023/06/10 03:48:34;;;;;;;;;;;15.90;99.90;;;;;;5058960;28;19915;-87
2023/06/10 03:50:59;;;;;;;;;;;16.00;99.90;;;;;;5075834;28;19919;-87
2023/06/10 03:53:25;;;;;;;;;;;16.00;99.90;;;;;;5060049;28;20283;-88
2023/06/10 03:55:51;;;;;;;;;;;16.00;99.90;;;;;;5059360;28;20312;-87
2023/06/10 03:58:20;;;;;;;;;;;16.00;99.90;;;;;;5060520;28;19893;-87
2023/06/10 04:00:46;;;;;;;;;;;16.00;99.90;;;;;;5059916;28;19908;-88
2023/06/10 04:06:44;;;;;;;;;;;16.00;99.90;;;;;;5072509;28;20014;-87
2023/06/10 04:09:10;;;;;;;;;;;16.00;99.90;;;;;;5071706;28;19923;-87
2023/06/10 04:11:36;;;;;;;;;;;16.00;99.90;;;;;;5067263;28;19938;-88
2023/06/10 04:14:02;;;;;;;;;;;16.00;99.90;;;;;;5075462;28;19911;-87
2023/06/10 04:16:29;;;;;;;;;;;16.00;99.90;;;;;;5075756;28;19930;-87
2023/06/10 04:18:55;;;;;;;;;;;16.10;99.90;;;;;;5059210;28;19909;-87
2023/06/10 04:21:21;;;;;;;;;;;16.10;99.90;;;;;;5058840;28;19912;-87
2023/06/10 04:23:48;;;;;;;;;;;16.20;99.90;;;;;;5059723;28;19924;-87
2023/06/10 04:26:15;;;;;;;;;;;16.20;99.90;;;;;;5075173;28;19957;-88
2023/06/10 04:28:43;;;;;;;;;;;16.30;99.90;;;;;;5074297;28;20007;-87
2023/06/10 04:31:08;;;;;;;;;;;16.30;99.90;;;;;;5075669;28;19908;-88
2023/06/10 04:33:34;;;;;;;;;;;16.30;99.90;;;;;;5058586;28;20313;-87
2023/06/10 04:36:02;;;;;;;;;;;16.40;99.90;;;;;;5058677;28;20001;-87
2023/06/10 04:38:31;;;;;;;;;;;16.40;99.90;;;;;;5075256;28;19931;-88
2023/06/10 04:40:58;;;;;;;;;;;16.50;99.90;;;;;;5075590;28;20332;-88
2023/06/10 04:43:25;;;;;;;;;;;16.50;99.90;;;;;;5075328;28;20018;-87
2023/06/10 04:45:51;;;;;;;;;;;16.60;99.90;;;;;;5058155;28;20386;-87
2023/06/10 04:48:17;;;;;;;;;;;16.70;99.90;;;;;;5075177;28;19912;-87
2023/06/10 04:50:42;;;;;;;;;;;16.70;99.90;;;;;;5058041;28;19959;-88
2023/06/10 04:53:09;;;;;;;;;;;16.80;99.90;;;;;;5069458;28;20272;-87
2023/06/10 04:55:37;;;;;;;;;;;16.90;99.90;;;;;;5057446;28;20430;-88
2023/06/10 04:58:03;;;;;;;;;;;17.00;99.90;;;;;;5072354;28;19953;-88
2023/06/10 05:00:28;;;;;;;;;;;17.10;99.90;;;;;;5058448;28;20374;-88
2023/06/10 05:02:55;;;;;;;;;;;17.10;99.90;;;;;;5075268;28;20378;-87
2023/06/10 05:05:21;;;;;;;;;;;17.20;99.90;;;;;;5075208;28;19915;-88
2023/06/10 05:07:47;;;;;;;;;;;17.20;99.90;;;;;;5074969;28;20330;-87
2023/06/10 05:10:12;;;;;;;;;;;17.30;99.90;;;;;;5091781;28;20059;-88
2023/06/10 05:12:38;;;;;;;;;;;17.30;99.90;;;;;;5075136;28;19957;-88
2023/06/10 05:15:10;;;;;;;;;;;17.40;99.90;;;;;;5059030;28;19915;-88
2023/06/10 05:17:36;;;;;;;;;;;17.50;99.90;;;;;;5074723;28;20267;-88
2023/06/10 05:20:02;;;;;;;;;;;17.60;99.90;;;;;;5075079;28;19908;-88
2023/06/10 05:22:29;;;;;;;;;;;17.60;99.90;;;;;;5058196;28;19911;-88
2023/06/10 05:24:55;;;;;;;;;;;17.70;99.90;;;;;;5057976;28;19912;-87
2023/06/10 05:27:21;;;;;;;;;;;17.70;99.90;;;;;;5075075;28;19904;-88
2023/06/10 05:29:47;;;;;;;;;;;17.80;99.90;;;;;;5059562;28;20279;-87
2023/06/10 05:32:13;;;;;;;;;;;17.80;99.90;;;;;;5074005;28;20000;-87
2023/06/10 05:34:38;;;;;;;;;;;17.80;99.90;;;;;;5057323;28;19908;-88
2023/06/10 05:37:04;;;;;;;;;;;17.90;99.90;;;;;;5074675;28;19911;-87
2023/06/10 05:39:30;;;;;;;;;;;18.00;99.90;;;;;;5073282;28;19908;-88
2023/06/10 05:41:58;;;;;;;;;;;18.00;99.90;;;;;;5074178;28;19908;-87
2023/06/10 05:44:24;;;;;;;;;;;18.10;99.90;;;;;;5074346;28;19943;-87
2023/06/10 05:46:50;;;;;;;;;;;18.20;99.90;;;;;;5074180;28;19908;-87
2023/06/10 05:49:16;;;;;;;;;;;18.30;99.90;;;;;;5058165;28;19908;-88
2023/06/10 05:51:41;;;;;;;;;;;18.40;99.90;;;;;;5074937;28;20363;-88
2023/06/10 05:54:07;;;;;;;;;;;18.40;99.90;;;;;;5074759;28;19935;-88
2023/06/10 05:56:33;;;;;;;;;;;18.50;99.90;;;;;;5075179;28;20240;-87
2023/06/10 05:58:58;;;;;;;;;;;18.60;99.90;;;;;;5057627;28;19908;-87
2023/06/10 06:01:24;;;;;;;;;;;18.70;99.90;;;;;;5057680;28;19922;-88
2023/06/10 06:03:50;;;;;;;;;;;18.80;99.90;;;;;;5057637;28;20249;-87
2023/06/10 06:06:15;;;;;;;;;;;18.90;99.90;;;;;;5074208;28;19916;-87
2023/06/10 06:08:41;;;;;;;;;;;19.00;99.90;;;;;;5057338;28;19993;-88
2023/06/10 06:11:06;;;;;;;;;;;19.00;99.90;;;;;;5074848;28;19912;-88
2023/06/10 06:13:32;;;;;;;;;;;19.10;99.90;;;;;;5074083;28;20306;-87
2023/06/10 06:15:57;;;;;;;;;;;19.20;99.90;;;;;;5074296;28;19991;-88
2023/06/10 06:18:23;;;;;;;;;;;19.20;99.90;;;;;;5074342;28;19916;-87
2023/06/10 06:20:49;;;;;;;;;;;19.30;99.90;;;;;;5074474;28;20360;-88
2023/06/10 06:23:15;;;;;;;;;;;19.40;99.90;;;;;;5057718;28;20364;-88
2023/06/10 06:25:40;;;;;;;;;;;19.50;99.90;;;;;;5074792;28;19908;-87
2023/06/10 06:28:07;;;;;;;;;;;19.50;99.90;;;;;;5073880;28;20002;-87
2023/06/10 06:30:32;;;;;;;;;;;19.60;99.90;;;;;;5057098;28;19919;-87
2023/06/10 06:32:58;;;;;;;;;;;19.60;99.90;;;;;;5075020;28;19908;-88
2023/06/10 06:35:24;;;;;;;;;;;19.70;99.90;;;;;;5073743;28;19896;-87
2023/06/10 06:37:50;;;;;;;;;;;19.70;99.90;;;;;;5050074;28;19923;-87
2023/06/10 06:40:24;;;;;;;;;;;19.80;99.90;;;;;;5068125;28;19908;-88
2023/06/10 06:42:50;;;;;;;;;;;19.90;99.90;;;;;;5068419;28;19915;-88
2023/06/10 06:45:22;;;;;;;;;;;20.00;99.90;;;;;;5072240;28;19942;-88
2023/06/10 06:47:48;;;;;;;;;;;20.00;99.90;;;;;;5071130;28;20266;-87
2023/06/10 06:50:13;;;;;;;;;;;20.10;99.90;;;;;;5058855;28;20357;-88
2023/06/10 06:52:42;;;;;;;;;;;20.20;99.90;;;;;;5075440;28;19909;-85
2023/06/10 06:55:08;;;;;;;;;;;20.20;99.90;;;;;;5073713;28;20320;-86
2023/06/10 06:57:34;;;;;;;;;;;20.30;99.90;;;;;;5059369;28;19908;-85
2023/06/10 07:00:00;;;;;;;;;;;20.40;99.90;;;;;;5061882;28;20006;-85
2023/06/10 07:02:26;;;;;;;;;;;20.50;99.90;;;;;;5074513;28;19930;-86
2023/06/10 07:04:55;;;;;;;;;;;20.70;99.90;;;;;;5067064;28;19909;-86
2023/06/10 07:07:20;;;;;;;;;;;20.80;99.90;;;;;;5062980;28;19946;-86
2023/06/10 07:09:46;;;;;;;;;;;20.90;99.90;;;;;;5072853;28;20401;-87
2023/06/10 07:12:12;;;;;;;;;;;21.10;99.90;;;;;;5067654;28;19908;-86
2023/06/10 07:14:37;;;;;;;;;;;21.90;99.90;;;;;;5072195;28;20267;-87
2023/06/10 07:17:03;;;;;;;;;;;23.50;99.90;;;;;;5050812;28;19999;-86
2023/06/10 07:19:29;;;;;;;;;;;25.20;99.90;;;;;;5071457;28;19908;-86
2023/06/10 07:21:54;;;;;;;;;;;26.40;99.90;;;;;;5069527;28;19909;-87
2023/06/10 07:24:20;;;;;;;;;;;27.30;98.40;;;;;;5072071;28;20344;-86
2023/06/10 07:26:46;;;;;;;;;;;27.80;96.70;;;;;;5054839;28;19909;-86
2023/06/10 07:29:12;;;;;;;;;;;28.50;95.70;;;;;;5071195;28;19916;-86
2023/06/10 07:31:38;;;;;;;;;;;29.40;93.20;;;;;;5051765;28;19915;-86
2023/06/10 07:34:04;;;;;;;;;;;30.10;90.50;;;;;;5068671;28;20374;-87
2023/06/10 07:36:30;;;;;;;;;;;30.10;86.90;;;;;;5062948;28;20287;-88
2023/06/10 07:38:55;;;;;;;;;;;29.60;89.70;;;;;;5072486;28;19908;-87
2023/06/10 07:41:22;;;;;;;;;;;28.90;88.20;;;;;;5073416;28;19916;-85
2023/06/10 07:43:48;;;;;;;;;;;27.30;90.50;;;;;;5073232;28;20271;-87
2023/06/10 07:46:13;;;;;;;;;;;26.00;92.30;;;;;;5074699;28;19908;-88
2023/06/10 07:48:39;;;;;;;;;;;25.20;93.50;;;;;;5059568;28;20341;-86
2023/06/10 07:51:05;;;;;;;;;;;24.60;94.00;;;;;;5075888;28;19912;-87
2023/06/10 07:53:30;;;;;;;;;;;24.20;95.60;;;;;;5058744;28;19943;-87
2023/06/10 07:55:56;;;;;;;;;;;23.70;96.40;;;;;;5077004;28;19915;-87
2023/06/10 07:58:22;;;;;;;;;;;24.10;96.90;;;;;;5059543;28;19970;-87
2023/06/10 08:00:47;;;;;;;;;;;25.80;95.30;;;;;;5071071;28;20074;-87
2023/06/10 08:03:13;;;;;;;;;;;27.60;92.30;;;;;;5073722;28;19944;-88
2023/06/10 08:05:42;;;;;;;;;;;28.80;88.80;;;;;;5059884;28;19908;-87
2023/06/10 08:08:07;;;;;;;;;;;29.10;88.10;;;;;;5076008;28;20276;-87
2023/06/10 08:10:33;;;;;;;;;;;29.70;87.00;;;;;;5059232;28;19912;-86
2023/06/10 08:12:59;;;;;;;;;;;30.10;84.80;;;;;;5077086;28;20367;-87
2023/06/10 08:15:24;;;;;;;;;;;31.10;80.50;;;;;;5075803;28;19912;-87
2023/06/10 08:17:50;;;;;;;;;;;31.10;79.00;;;;;;5059234;28;20015;-87
2023/06/10 08:20:16;;;;;;;;;;;31.80;78.70;;;;;;5058842;28;20371;-87
2023/06/10 08:22:42;;;;;;;;;;;32.20;76.80;;;;;;5058736;28;19954;-87
2023/06/10 08:25:08;;;;;;;;;;;32.50;74.60;;;;;;5058245;28;20371;-88
2023/06/10 08:27:33;;;;;;;;;;;32.60;71.90;;;;;;5074802;28;19916;-88
2023/06/10 08:30:00;;;;;;;;;;;32.50;71.60;;;;;;5058619;28;20370;-88
2023/06/10 08:32:28;;;;;;;;;;;31.70;71.60;;;;;;5075176;28;19909;-88
2023/06/10 08:34:53;;;;;;;;;;;31.10;75.10;;;;;;5054937;28;19908;-86
2023/06/10 08:37:19;;;;;;;;;;;31.30;73.50;;;;;;5073437;28;19908;-87
2023/06/10 08:39:44;;;;;;;;;;;31.50;72.60;;;;;;5072916;28;19915;-88
2023/06/10 08:42:24;;;;;;;;;;;32.30;71.70;;;;;;5058091;28;19999;-87
2023/06/10 08:44:56;;;;;;;;;;;32.80;71.10;;;;;;5075334;28;19938;-88
2023/06/10 08:47:23;;;;;;;;;;;33.10;69.40;;;;;;5060907;28;19908;-88
2023/06/10 08:49:49;;;;;;;;;;;32.30;69.50;;;;;;5059563;28;19915;-90
2023/06/10 08:52:18;;;;;;;;;;;32.00;70.60;;;;;;5058322;28;19914;-88
2023/06/10 08:54:48;;;;;;;;;;;31.90;73.60;;;;;;5058981;28;20357;-93
2023/06/10 08:57:15;;;;;;;;;;;32.00;69.60;;;;;;5074669;28;20286;-88
2023/06/10 08:59:40;;;;;;;;;;;32.30;69.90;;;;;;5058775;28;19961;-87
2023/06/10 09:02:06;;;;;;;;;;;31.90;70.60;;;;;;5057526;28;19908;-88
2023/06/10 09:04:33;;;;;;;;;;;32.10;69.70;;;;;;5074976;28;19909;-88
2023/06/10 09:06:59;;;;;;;;;;;32.10;70.40;;;;;;5057242;28;20370;-88
2023/06/10 09:09:25;;;;;;;;;;;31.50;71.10;;;;;;5073715;28;19920;-88
2023/06/10 09:11:51;;;;;;;;;;;31.00;70.30;;;;;;5068779;28;19915;-90
2023/06/10 09:14:17;;;;;;;;;;;31.00;71.90;;;;;;5057704;28;20278;-88
2023/06/10 09:16:43;;;;;;;;;;;30.70;70.50;;;;;;5057812;28;20355;-88
2023/06/10 09:19:09;;;;;;;;;;;30.70;71.60;;;;;;5074831;28;19915;-88
2023/06/10 09:21:35;;;;;;;;;;;31.30;71.20;;;;;;5074196;28;20263;-87
2023/06/10 09:24:01;;;;;;;;;;;31.20;69.10;;;;;;5074199;28;19908;-86
2023/06/10 09:26:30;;;;;;;;;;;31.50;71.30;;;;;;5074272;28;19919;-88
2023/06/10 09:29:02;;;;;;;;;;;32.10;69.60;;;;;;5057954;28;19938;-88
2023/06/10 09:31:28;;;;;;;;;;;32.20;69.10;;;;;;5074174;28;19908;-88
2023/06/10 09:33:54;;;;;;;;;;;32.00;70.60;;;;;;5057498;28;20685;-88
2023/06/10 09:36:23;;;;;;;;;;;31.70;67.70;;;;;;5074258;28;19942;-89
2023/06/10 09:38:49;;;;;;;;;;;32.30;67.00;;;;;;5057071;28;19908;-89
2023/06/10 09:41:15;;;;;;;;;;;32.50;65.90;;;;;;5074040;28;20371;-88
2023/06/10 09:43:41;;;;;;;;;;;31.50;67.10;;;;;;5056916;28;19912;-87
2023/06/10 09:46:14;;;;;;;;;;;31.20;66.60;;;;;;5071310;28;19912;-87
2023/06/10 09:48:43;;;;;;;;;;;31.10;67.20;;;;;;5056937;28;19908;-87
2023/06/10 09:51:10;;;;;;;;;;;30.90;67.00;;;;;;5074109;28;19924;-88
2023/06/10 09:53:35;;;;;;;;;;;31.30;68.30;;;;;;5073944;28;19915;-87
2023/06/10 09:56:01;;;;;;;;;;;31.90;65.70;;;;;;5074443;28;19909;-88
2023/06/10 09:58:37;;;;;;;;;;;31.90;64.40;;;;;;5059008;28;20371;-88
2023/06/10 10:01:08;;;;;;;;;;;30.50;67.20;;;;;;5087957;28;19915;-88
2023/06/10 10:03:42;;;;;;;;;;;29.00;69.90;;;;;;5075084;28;19928;-87
2023/06/10 10:06:08;;;;;;;;;;;28.80;72.60;;;;;;5074237;28;20374;-87
2023/06/10 10:08:34;;;;;;;;;;;29.50;72.00;;;;;;5073866;28;20435;-89
2023/06/10 10:11:01;;;;;;;;;;;30.50;70.80;;;;;;5062069;28;19912;-88
2023/06/10 10:16:55;;;;;;;;;;;30.20;69.60;;;;;;5077623;28;20058;-87
2023/06/10 10:19:25;;;;;;;;;;;29.70;70.80;;;;;;5076960;28;19917;-87
2023/06/10 10:21:54;;;;;;;;;;;29.40;75.00;;;;;;5073421;28;19915;-87
2023/06/10 10:24:21;;;;;;;;;;;29.50;72.40;;;;;;5077820;28;19908;-87
2023/06/10 10:26:47;;;;;;;;;;;29.10;72.70;;;;;;5083731;28;20332;-87
2023/06/10 10:29:19;;;;;;;;;;;29.30;69.30;;;;;;5067181;28;19948;-87
2023/06/10 10:31:46;;;;;;;;;;;28.80;69.90;;;;;;5079965;28;19914;-89
2023/06/10 10:34:15;;;;;;;;;;;28.90;71.20;;;;;;5065648;28;19908;-88
2023/06/10 10:36:40;;;;;;;;;;;28.60;71.40;;;;;;5084118;28;19907;-87
2023/06/10 10:39:07;;;;;;;;;;;28.50;71.60;;;;;;5081967;28;20474;-87
2023/06/10 10:41:33;;;;;;;;;;;28.90;72.20;;;;;;5074966;28;19995;-87
2023/06/10 10:43:59;;;;;;;;;;;29.40;74.30;;;;;;5085755;28;20345;-88
2023/06/10 10:46:25;;;;;;;;;;;30.10;71.20;;;;;;5066858;28;19909;-87
2023/06/10 10:49:19;;;;;;;;;;;29.50;69.30;;;;;;5066707;28;20378;-87
2023/06/10 10:52:01;;;;;;;;;;;28.50;71.10;;;;;;5082154;28;19915;-88
2023/06/10 10:54:36;;;;;;;;;;;28.00;73.30;;;;;;5080796;28;19908;-89
2023/06/10 10:57:11;;;;;;;;;;;28.30;72.70;;;;;;5069279;28;19908;-89
2023/06/10 10:59:49;;;;;;;;;;;28.50;72.30;;;;;;5094430;28;20094;-88
2023/06/10 11:02:18;;;;;;;;;;;28.70;70.70;;;;;;5077283;28;19958;-88
2023/06/10 11:08:12;;;;;;;;;;;29.20;71.90;;;;;;5060808;28;19924;-88
2023/06/10 11:10:39;;;;;;;;;;;29.30;74.30;;;;;;5078464;28;19915;-88
2023/06/10 11:13:06;;;;;;;;;;;30.10;71.40;;;;;;5077586;28;19892;-89
2023/06/10 11:15:32;;;;;;;;;;;30.00;71.20;;;;;;5076530;28;19937;-88
2023/06/10 11:18:10;;;;;;;;;;;29.80;70.60;;;;;;5081995;28;19915;-88
2023/06/10 11:21:04;;;;;;;;;;;30.00;71.60;;;;;;5087993;28;19943;-89
2023/06/10 11:23:33;;;;;;;;;;;29.70;69.30;;;;;;5044775;28;19915;-88
2023/06/10 11:26:14;;;;;;;;;;;29.20;71.60;;;;;;5058717;28;20302;-89
2023/06/10 11:28:40;;;;;;;;;;;28.90;71.20;;;;;;5075933;28;19908;-88
2023/06/10 11:31:06;;;;;;;;;;;28.30;71.70;;;;;;5056895;28;19908;-88
2023/06/10 11:33:32;;;;;;;;;;;28.30;73.20;;;;;;5075402;28;20006;-88
2023/06/10 11:36:00;;;;;;;;;;;29.30;72.30;;;;;;5059597;28;19909;-89
2023/06/10 11:38:26;;;;;;;;;;;30.30;73.90;;;;;;5075932;28;19912;-89
2023/06/10 11:40:52;;;;;;;;;;;30.70;69.70;;;;;;5059388;28;19917;-88
2023/06/10 11:43:18;;;;;;;;;;;30.50;68.70;;;;;;5076658;28;19916;-88
2023/06/10 11:45:44;;;;;;;;;;;29.80;70.50;;;;;;5076171;28;19916;-89
2023/06/10 11:48:09;;;;;;;;;;;29.50;70.00;;;;;;5059214;28;19909;-88
2023/06/10 11:50:36;;;;;;;;;;;29.20;70.90;;;;;;5059063;28;19916;-88
2023/06/10 11:53:02;;;;;;;;;;;29.40;72.10;;;;;;5075816;28;19908;-88
2023/06/10 11:55:44;;;;;;;;;;;29.20;71.60;;;;;;5077143;28;19997;-86
2023/06/10 11:58:20;;;;;;;;;;;29.10;70.80;;;;;;5059052;28;19958;-87
2023/06/10 12:00:49;;;;;;;;;;;29.60;71.90;;;;;;5076286;28;19987;-88
2023/06/10 12:03:15;;;;;;;;;;;29.90;70.90;;;;;;5052805;28;19915;-87
2023/06/10 12:05:54;;;;;;;;;;;30.40;68.30;;;;;;5088621;28;19908;-88
2023/06/10 12:08:19;;;;;;;;;;;30.00;66.40;;;;;;5083285;28;19912;-88
2023/06/10 12:11:10;;;;;;;;;;;29.40;68.90;;;;;;5059100;28;19916;-88
2023/06/10 12:13:36;;;;;;;;;;;29.60;69.50;;;;;;5082654;28;19912;-87
2023/06/10 12:16:11;;;;;;;;;;;30.10;68.80;;;;;;5072463;28;20003;-88
2023/06/10 12:18:36;;;;;;;;;;;30.30;66.60;;;;;;5077538;28;19897;-88
2023/06/10 12:21:03;;;;;;;;;;;30.10;68.40;;;;;;5065224;28;20379;-88
2023/06/10 12:23:29;;;;;;;;;;;30.00;68.70;;;;;;5081920;28;19908;-88
2023/06/10 12:25:55;;;;;;;;;;;30.70;66.50;;;;;;5061834;28;19916;-89
2023/06/10 12:28:25;;;;;;;;;;;30.50;66.70;;;;;;5072930;28;20001;-88
2023/06/10 12:30:51;;;;;;;;;;;29.60;66.90;;;;;;5068250;28;19927;-88
2023/06/10 12:33:17;;;;;;;;;;;29.50;68.80;;;;;;5073194;28;19912;-88
2023/06/10 12:35:50;;;;;;;;;;;30.20;68.70;;;;;;5070703;28;19953;-88
2023/06/10 12:38:21;;;;;;;;;;;30.50;67.00;;;;;;5086178;28;19915;-88
2023/06/10 12:40:47;;;;;;;;;;;29.60;67.00;;;;;;5068153;28;20314;-87
2023/06/10 12:43:13;;;;;;;;;;;28.90;68.70;;;;;;5088480;28;19915;-88
2023/06/10 12:45:44;;;;;;;;;;;28.60;68.80;;;;;;5074419;28;19947;-88
2023/06/10 12:48:20;;;;;;;;;;;28.70;68.50;;;;;;5058195;28;19961;-89
2023/06/10 12:50:53;;;;;;;;;;;29.70;69.70;;;;;;5074512;28;19912;-88
2023/06/10 12:53:20;;;;;;;;;;;30.90;66.30;;;;;;5058373;28;19909;-87
2023/06/10 12:55:46;;;;;;;;;;;31.80;63.30;;;;;;5074987;28;19908;-88
2023/06/10 12:58:12;;;;;;;;;;;32.50;60.60;;;;;;5057921;28;19984;-88
2023/06/10 13:00:38;;;;;;;;;;;32.60;60.60;;;;;;5075595;28;19912;-89
2023/06/10 13:03:07;;;;;;;;;;;33.00;60.70;;;;;;5058256;28;20351;-88
2023/06/10 13:05:33;;;;;;;;;;;32.70;62.10;;;;;;5075768;28;19912;-88
2023/06/10 13:07:59;;;;;;;;;;;32.20;61.90;;;;;;5073798;28;20244;-88
2023/06/10 13:10:25;;;;;;;;;;;31.90;60.40;;;;;;5075053;28;19913;-88
2023/06/10 13:12:51;;;;;;;;;;;32.90;60.70;;;;;;5059059;28;19909;-89
2023/06/10 13:15:17;;;;;;;;;;;33.20;62.20;;;;;;5058031;28;19913;-88
2023/06/10 13:18:07;;;;;;;;;;;32.10;61.30;;;;;;5075758;28;19951;-88
2023/06/10 13:20:33;;;;;;;;;;;31.50;62.70;;;;;;5058325;28;19909;-88
2023/06/10 13:22:59;;;;;;;;;;;31.30;59.90;;;;;;5074839;28;20252;-88
2023/06/10 13:25:24;;;;;;;;;;;31.50;61.60;;;;;;5059120;28;19915;-89
2023/06/10 13:27:50;;;;;;;;;;;32.60;59.80;;;;;;5064941;28;19915;-89
2023/06/10 13:30:16;;;;;;;;;;;33.10;59.70;;;;;;5059699;28;19912;-89
2023/06/10 13:32:41;;;;;;;;;;;32.40;62.00;;;;;;5075625;28;19904;-88
2023/06/10 13:35:07;;;;;;;;;;;31.40;61.70;;;;;;5074729;28;19962;-89
2023/06/10 13:37:33;;;;;;;;;;;31.10;63.30;;;;;;5074841;28;19915;-89
2023/06/10 13:39:59;;;;;;;;;;;30.80;63.00;;;;;;5070781;28;20259;-88
2023/06/10 13:42:26;;;;;;;;;;;30.30;63.10;;;;;;5069253;28;19896;-89
2023/06/10 13:44:51;;;;;;;;;;;30.20;65.30;;;;;;5070517;28;20283;-89
2023/06/10 13:47:17;;;;;;;;;;;30.80;64.20;;;;;;5068720;28;19913;-89
2023/06/10 13:49:43;;;;;;;;;;;31.50;61.20;;;;;;5074853;28;19931;-89
2023/06/10 13:52:08;;;;;;;;;;;31.20;61.40;;;;;;5075051;28;19958;-90
2023/06/10 13:54:37;;;;;;;;;;;31.30;63.60;;;;;;5057606;28;19924;-88
2023/06/10 13:57:03;;;;;;;;;;;31.40;61.00;;;;;;5076960;28;19908;-88
2023/06/10 13:59:29;;;;;;;;;;;30.40;61.30;;;;;;5073269;28;19908;-88
2023/06/10 14:01:55;;;;;;;;;;;29.20;63.80;;;;;;5060026;28;20306;-88
2023/06/10 14:04:21;;;;;;;;;;;28.30;66.40;;;;;;5077891;28;19919;-90
2023/06/10 14:06:46;;;;;;;;;;;28.80;67.20;;;;;;5088194;28;20334;-90
2023/06/10 14:09:12;;;;;;;;;;;29.40;66.30;;;;;;5061219;28;19966;-88
2023/06/10 14:11:56;;;;;;;;;;;30.30;63.90;;;;;;5078661;28;19904;-89
2023/06/10 14:14:22;;;;;;;;;;;30.50;62.10;;;;;;5061191;28;19908;-88
2023/06/10 14:16:48;;;;;;;;;;;31.30;61.20;;;;;;5093972;28;19936;-88
2023/06/10 14:19:13;;;;;;;;;;;32.30;60.80;;;;;;5060996;28;20414;-88
2023/06/10 14:21:39;;;;;;;;;;;32.30;59.30;;;;;;5075226;28;19916;-85
2023/06/10 14:24:05;;;;;;;;;;;32.80;58.60;;;;;;5063521;28;19916;-87
2023/06/10 14:26:36;;;;;;;;;;;33.20;58.40;;;;;;5090997;28;19915;-88
2023/06/10 14:29:02;;;;;;;;;;;33.30;57.60;;;;;;5077377;28;19908;-88